sensor_id;sensor_type;location;lat;lon;timestamp;pressure;altitude;pressure_sealevel;temperature;humidity
13314;BME280;6725;48.112;11.604;2023-04-22T00:01:14;94805.38;;;10.30;100.00
13314;BME280;6725;48.112;11.604;2023-04-22T00:03:39;94798.34;;;10.29;100.00
13314;BME280;6725;48.112;11.604;2023-04-22T00:06:06;94795.75;;;10.22;100.00
13314;BME280;6725;48.112;11.604;2023-04-22T00:08:31;94797.88;;;10.10;100.00
13314;BME280;6725;48.112;11.604;2023-04-22T00:10:56;94793.28;;;10.04;100.00
13314;BME280;6725;48.112;11.604;2023-04-22T00:13:22;94791.06;;;9.95;100.00
13314;BME280;6725;48.112;11.604;2023-04-22T00:15:47;94777.69;;;10.04;100.00
13314;BME280;6725;48.112;11.604;2023-04-22T00:18:13;94783.53;;;10.06;100.00
13314;BME280;6725;48.112;11.604;2023-04-22T00:20:41;94775.50;;;9.96;100.00
13314;BME280;6725;48.112;11.604;2023-04-22T00:23:08;94769.78;;;9.87;100.00
13314;BME280;6725;48.112;11.604;2023-04-22T00:25:33;94774.09;;;9.84;100.00
13314;BME280;6725;48.112;11.604;2023-04-22T00:27:59;94775.72;;;9.82;100.00
13314;BME280;6725;48.112;11.604;2023-04-22T00:30:24;94771.84;;;9.79;100.00
13314;BME280;6725;48.112;11.604;2023-04-22T00:32:50;94769.53;;;9.78;100.00
13314;BME280;6725;48.112;11.604;2023-04-22T00:35:15;94769.59;;;9.74;100.00
13314;BME280;6725;48.112;11.604;2023-04-22T00:37:41;94780.16;;;9.72;100.00
13314;BME280;6725;48.112;11.604;2023-04-22T00:40:06;94774.59;;;9.79;100.00
13314;BME280;6725;48.112;11.604;2023-04-22T00:42:32;94781.28;;;9.75;100.00
13314;BME280;6725;48.112;11.604;2023-04-22T00:44:58;94769.25;;;9.72;100.00
13314;BME280;6725;48.112;11.604;2023-04-22T00:47:24;94768.16;;;9.66;100.00
13314;BME280;6725;48.112;11.604;2023-04-22T00:49:52;94765.09;;;9.64;100.00
13314;BME280;6725;48.112;11.604;2023-04-22T00:52:17;94770.31;;;9.52;100.00
13314;BME280;6725;48.112;11.604;2023-04-22T00:54:43;94763.47;;;9.40;100.00
13314;BME280;6725;48.112;11.604;2023-04-22T00:57:08;94763.13;;;9.38;100.00
13314;BME280;6725;48.112;11.604;2023-04-22T00:59:34;94758.50;;;9.35;100.00
13314;BME280;6725;48.112;11.604;2023-04-22T01:02:00;94756.13;;;9.37;100.00
13314;BME280;6725;48.112;11.604;2023-04-22T01:04:25;94764.75;;;9.32;100.00
13314;BME280;6725;48.112;11.604;2023-04-22T01:06:51;94754.56;;;9.36;100.00
13314;BME280;6725;48.112;11.604;2023-04-22T01:09:18;94764.66;;;9.39;100.00
13314;BME280;6725;48.112;11.604;2023-04-22T01:11:45;94766.25;;;9.37;100.00
13314;BME280;6725;48.112;11.604;2023-04-22T01:14:11;94763.06;;;9.42;100.00
13314;BME280;6725;48.112;11.604;2023-04-22T01:16:37;94760.75;;;9.40;100.00
13314;BME280;6725;48.112;11.604;2023-04-22T01:19:04;94757.31;;;9.36;100.00
13314;BME280;6725;48.112;11.604;2023-04-22T01:21:31;94752.31;;;9.31;100.00
13314;BME280;6725;48.112;11.604;2023-04-22T01:24:01;94757.00;;;9.31;100.00
13314;BME280;6725;48.112;11.604;2023-04-22T01:26:27;94746.91;;;9.28;100.00
13314;BME280;6725;48.112;11.604;2023-04-22T01:28:53;94748.91;;;9.24;100.00
13314;BME280;6725;48.112;11.604;2023-04-22T01:31:19;94748.25;;;9.16;100.00
13314;BME280;6725;48.112;11.604;2023-04-22T01:33:44;94743.94;;;9.19;100.00
13314;BME280;6725;48.112;11.604;2023-04-22T01:36:11;94745.13;;;9.18;100.00
13314;BME280;6725;48.112;11.604;2023-04-22T01:38:36;94751.72;;;9.17;100.00
13314;BME280;6725;48.112;11.604;2023-04-22T01:41:01;94747.53;;;9.12;100.00
13314;BME280;6725;48.112;11.604;2023-04-22T01:43:28;94738.63;;;9.08;100.00
13314;BME280;6725;48.112;11.604;2023-04-22T01:45:57;94741.81;;;9.03;100.00
13314;BME280;6725;48.112;11.604;2023-04-22T01:48:24;94737.06;;;9.07;100.00
13314;BME280;6725;48.112;11.604;2023-04-22T01:50:49;94739.78;;;9.07;100.00
13314;BME280;6725;48.112;11.604;2023-04-22T01:53:15;94736.72;;;9.05;100.00
13314;BME280;6725;48.112;11.604;2023-04-22T01:55:41;94738.00;;;8.97;100.00
13314;BME280;6725;48.112;11.604;2023-04-22T01:58:07;94735.28;;;8.97;100.00
13314;BME280;6725;48.112;11.604;2023-04-22T02:00:33;94728.66;;;8.98;100.00
13314;BME280;6725;48.112;11.604;2023-04-22T02:02:58;94739.66;;;8.88;100.00
13314;BME280;6725;48.112;11.604;2023-04-22T02:05:25;94736.63;;;8.82;100.00
13314;BME280;6725;48.112;11.604;2023-04-22T02:07:51;94728.81;;;8.84;100.00
13314;BME280;6725;48.112;11.604;2023-04-22T02:10:17;94737.06;;;8.77;100.00
13314;BME280;6725;48.112;11.604;2023-04-22T02:12:43;94730.44;;;8.78;100.00
13314;BME280;6725;48.112;11.604;2023-04-22T02:15:09;94722.25;;;8.82;100.00
13314;BME280;6725;48.112;11.604;2023-04-22T02:17:34;94722.34;;;8.75;100.00
13314;BME280;6725;48.112;11.604;2023-04-22T02:20:03;94719.22;;;8.73;100.00
13314;BME280;6725;48.112;11.604;2023-04-22T02:22:30;94716.91;;;8.71;100.00
13314;BME280;6725;48.112;11.604;2023-04-22T02:24:56;94708.09;;;8.64;100.00
13314;BME280;6725;48.112;11.604;2023-04-22T02:27:21;94715.19;;;8.54;100.00
13314;BME280;6725;48.112;11.604;2023-04-22T02:29:46;94709.75;;;8.54;100.00
13314;BME280;6725;48.112;11.604;2023-04-22T02:32:12;94704.66;;;8.56;100.00
13314;BME280;6725;48.112;11.604;2023-04-22T02:34:38;94705.84;;;8.55;100.00
13314;BME280;6725;48.112;11.604;2023-04-22T02:37:03;94704.31;;;8.54;100.00
13314;BME280;6725;48.112;11.604;2023-04-22T02:39:29;94695.78;;;8.52;100.00
13314;BME280;6725;48.112;11.604;2023-04-22T02:41:55;94702.03;;;8.49;100.00
13314;BME280;6725;48.112;11.604;2023-04-22T02:44:20;94698.16;;;8.50;100.00
13314;BME280;6725;48.112;11.604;2023-04-22T02:46:45;94698.56;;;8.45;100.00
13314;BME280;6725;48.112;11.604;2023-04-22T02:49:11;94684.22;;;8.45;100.00
13314;BME280;6725;48.112;11.604;2023-04-22T02:51:37;94688.56;;;8.39;100.00
13314;BME280;6725;48.112;11.604;2023-04-22T02:54:03;94684.41;;;8.27;100.00
13314;BME280;6725;48.112;11.604;2023-04-22T02:56:28;94675.09;;;8.28;100.00
13314;BME280;6725;48.112;11.604;2023-04-22T02:58:54;94673.53;;;8.27;100.00
13314;BME280;6725;48.112;11.604;2023-04-22T03:01:19;94675.88;;;8.25;100.00
13314;BME280;6725;48.112;11.604;2023-04-22T03:03:44;94665.41;;;8.24;100.00
13314;BME280;6725;48.112;11.604;2023-04-22T03:06:10;94665.06;;;8.18;100.00
13314;BME280;6725;48.112;11.604;2023-04-22T03:08:35;94653.44;;;8.14;100.00
13314;BME280;6725;48.112;11.604;2023-04-22T03:11:00;94655.13;;;8.01;100.00
13314;BME280;6725;48.112;11.604;2023-04-22T03:13:26;94651.25;;;8.02;100.00
13314;BME280;6725;48.112;11.604;2023-04-22T03:15:51;94639.94;;;8.07;100.00
13314;BME280;6725;48.112;11.604;2023-04-22T03:18:16;94626.41;;;8.00;100.00
13314;BME280;6725;48.112;11.604;2023-04-22T03:20:42;94633.38;;;8.01;100.00
13314;BME280;6725;48.112;11.604;2023-04-22T03:23:07;94628.31;;;8.03;100.00
13314;BME280;6725;48.112;11.604;2023-04-22T03:25:34;94626.41;;;8.00;100.00
13314;BME280;6725;48.112;11.604;2023-04-22T03:27:59;94617.06;;;8.01;100.00
13314;BME280;6725;48.112;11.604;2023-04-22T03:30:25;94617.16;;;7.94;100.00
13314;BME280;6725;48.112;11.604;2023-04-22T03:32:50;94615.63;;;7.93;100.00
13314;BME280;6725;48.112;11.604;2023-04-22T03:35:18;94607.44;;;7.97;100.00
13314;BME280;6725;48.112;11.604;2023-04-22T03:37:43;94605.56;;;7.90;100.00
13314;BME280;6725;48.112;11.604;2023-04-22T03:40:09;94600.91;;;7.87;100.00
13314;BME280;6725;48.112;11.604;2023-04-22T03:42:34;94595.66;;;7.73;100.00
13314;BME280;6725;48.112;11.604;2023-04-22T03:45:00;94604.97;;;7.72;100.00
13314;BME280;6725;48.112;11.604;2023-04-22T03:47:25;94601.09;;;7.70;100.00
13314;BME280;6725;48.112;11.604;2023-04-22T03:49:50;94589.91;;;7.68;100.00
13314;BME280;6725;48.112;11.604;2023-04-22T03:52:16;94593.41;;;7.65;100.00
13314;BME280;6725;48.112;11.604;2023-04-22T03:54:41;94587.19;;;7.64;100.00
13314;BME280;6725;48.112;11.604;2023-04-22T03:57:06;94591.84;;;7.64;100.00
13314;BME280;6725;48.112;11.604;2023-04-22T03:59:32;94587.06;;;7.78;100.00
13314;BME280;6725;48.112;11.604;2023-04-22T04:01:57;94587.06;;;7.78;100.00
13314;BME280;6725;48.112;11.604;2023-04-22T04:04:23;94591.38;;;7.72;100.00
13314;BME280;6725;48.112;11.604;2023-04-22T04:06:49;94588.31;;;7.70;100.00
13314;BME280;6725;48.112;11.604;2023-04-22T04:09:14;94589.13;;;7.67;100.00
13314;BME280;6725;48.112;11.604;2023-04-22T04:11:39;94588.72;;;7.65;100.00
13314;BME280;6725;48.112;11.604;2023-04-22T04:14:05;94584.94;;;7.59;100.00
13314;BME280;6725;48.112;11.604;2023-04-22T04:16:30;94591.16;;;7.56;100.00
13314;BME280;6725;48.112;11.604;2023-04-22T04:18:55;94589.56;;;7.62;100.00
13314;BME280;6725;48.112;11.604;2023-04-22T04:21:21;94583.34;;;7.62;100.00
13314;BME280;6725;48.112;11.604;2023-04-22T04:23:46;94577.06;;;7.68;100.00
13314;BME280;6725;48.112;11.604;2023-04-22T04:26:12;94580.63;;;7.62;100.00
13314;BME280;6725;48.112;11.604;2023-04-22T04:28:39;94570.88;;;7.68;100.00
13314;BME280;6725;48.112;11.604;2023-04-22T04:31:05;94564.59;;;7.74;100.00
13314;BME280;6725;48.112;11.604;2023-04-22T04:33:31;94567.50;;;7.90;100.00
13314;BME280;6725;48.112;11.604;2023-04-22T04:35:56;94567.34;;;8.04;100.00
13314;BME280;6725;48.112;11.604;2023-04-22T04:38:22;94565.00;;;8.06;100.00
13314;BME280;6725;48.112;11.604;2023-04-22T04:40:50;94572.69;;;8.11;100.00
13314;BME280;6725;48.112;11.604;2023-04-22T04:43:15;94574.13;;;8.23;100.00
13314;BME280;6725;48.112;11.604;2023-04-22T04:45:41;94582.91;;;8.64;100.00
13314;BME280;6725;48.112;11.604;2023-04-22T04:48:14;94589.91;;;9.14;100.00
13314;BME280;6725;48.112;11.604;2023-04-22T04:50:41;94637.25;;;9.70;100.00
13314;BME280;6725;48.112;11.604;2023-04-22T04:53:07;94669.63;;;10.34;100.00
13314;BME280;6725;48.112;11.604;2023-04-22T04:55:32;94698.38;;;10.97;100.00
13314;BME280;6725;48.112;11.604;2023-04-22T04:57:57;94719.91;;;11.66;100.00
13314;BME280;6725;48.112;11.604;2023-04-22T05:00:23;94744.72;;;12.07;100.00
13314;BME280;6725;48.112;11.604;2023-04-22T05:02:48;94761.53;;;12.21;100.00
13314;BME280;6725;48.112;11.604;2023-04-22T05:05:13;94759.34;;;12.00;100.00
13314;BME280;6725;48.112;11.604;2023-04-22T05:07:39;94759.44;;;12.13;100.00
13314;BME280;6725;48.112;11.604;2023-04-22T05:10:05;94770.22;;;12.20;100.00
13314;BME280;6725;48.112;11.604;2023-04-22T05:12:30;94767.59;;;12.61;100.00
13314;BME280;6725;48.112;11.604;2023-04-22T05:14:56;94775.22;;;12.98;100.00
13314;BME280;6725;48.112;11.604;2023-04-22T05:17:21;94768.59;;;13.24;100.00
13314;BME280;6725;48.112;11.604;2023-04-22T05:19:46;94777.97;;;13.39;100.00
13314;BME280;6725;48.112;11.604;2023-04-22T05:22:12;94771.09;;;13.72;100.00
13314;BME280;6725;48.112;11.604;2023-04-22T05:24:37;94773.50;;;13.83;100.00
13314;BME280;6725;48.112;11.604;2023-04-22T05:27:03;94773.88;;;14.22;100.00
13314;BME280;6725;48.112;11.604;2023-04-22T05:29:28;94764.94;;;14.06;100.00
13314;BME280;6725;48.112;11.604;2023-04-22T05:31:54;94768.59;;;14.62;100.00
13314;BME280;6725;48.112;11.604;2023-04-22T05:34:19;94772.25;;;14.93;100.00
13314;BME280;6725;48.112;11.604;2023-04-22T05:36:44;94775.84;;;15.02;100.00
13314;BME280;6725;48.112;11.604;2023-04-22T05:39:10;94774.19;;;15.78;100.00
13314;BME280;6725;48.112;11.604;2023-04-22T05:41:35;94773.13;;;16.06;100.00
13314;BME280;6725;48.112;11.604;2023-04-22T05:44:00;94778.91;;;15.99;100.00
13314;BME280;6725;48.112;11.604;2023-04-22T05:46:26;94775.03;;;16.36;100.00
13314;BME280;6725;48.112;11.604;2023-04-22T05:48:51;94784.28;;;16.42;100.00
13314;BME280;6725;48.112;11.604;2023-04-22T05:51:18;94781.28;;;16.68;100.00
13314;BME280;6725;48.112;11.604;2023-04-22T05:53:44;94789.88;;;16.79;100.00
13314;BME280;6725;48.112;11.604;2023-04-22T05:56:09;94787.59;;;16.86;100.00
13314;BME280;6725;48.112;11.604;2023-04-22T05:58:35;94799.38;;;16.87;100.00
13314;BME280;6725;48.112;11.604;2023-04-22T06:01:01;94797.09;;;17.39;100.00
13314;BME280;6725;48.112;11.604;2023-04-22T06:03:27;94795.84;;;18.36;100.00
13314;BME280;6725;48.112;11.604;2023-04-22T06:05:52;94804.41;;;18.38;100.00
13314;BME280;6725;48.112;11.604;2023-04-22T06:08:17;94800.16;;;18.28;100.00
13314;BME280;6725;48.112;11.604;2023-04-22T06:10:44;94816.13;;;18.24;100.00
13314;BME280;6725;48.112;11.604;2023-04-22T06:13:09;94812.69;;;18.47;100.00
13314;BME280;6725;48.112;11.604;2023-04-22T06:15:35;94816.19;;;18.56;100.00
13314;BME280;6725;48.112;11.604;2023-04-22T06:18:00;94815.41;;;18.56;100.00
13314;BME280;6725;48.112;11.604;2023-04-22T06:20:26;94824.75;;;18.91;100.00
13314;BME280;6725;48.112;11.604;2023-04-22T06:22:51;94825.34;;;19.42;100.00
13314;BME280;6725;48.112;11.604;2023-04-22T06:25:16;94818.09;;;19.59;98.66
13314;BME280;6725;48.112;11.604;2023-04-22T06:27:42;94821.88;;;20.14;90.90
13314;BME280;6725;48.112;11.604;2023-04-22T06:30:07;94826.56;;;20.08;87.65
13314;BME280;6725;48.112;11.604;2023-04-22T06:32:34;94825.78;;;20.51;82.80
13314;BME280;6725;48.112;11.604;2023-04-22T06:35:00;94813.22;;;21.05;82.83
13314;BME280;6725;48.112;11.604;2023-04-22T06:37:25;94813.22;;;21.05;82.83
13314;BME280;6725;48.112;11.604;2023-04-22T06:39:51;94819.25;;;23.08;72.57
13314;BME280;6725;48.112;11.604;2023-04-22T06:42:16;94819.25;;;23.08;72.57
13314;BME280;6725;48.112;11.604;2023-04-22T06:44:42;94819.25;;;23.08;72.57
13314;BME280;6725;48.112;11.604;2023-04-22T06:47:07;94819.25;;;23.08;72.57
13314;BME280;6725;48.112;11.604;2023-04-22T06:49:32;94819.25;;;23.08;72.57
13314;BME280;6725;48.112;11.604;2023-04-22T06:51:59;94819.25;;;23.08;72.57
13314;BME280;6725;48.112;11.604;2023-04-22T06:54:25;94819.25;;;23.08;72.57
13314;BME280;6725;48.112;11.604;2023-04-22T06:56:50;94819.25;;;23.08;72.57
13314;BME280;6725;48.112;11.604;2023-04-22T06:59:16;94819.25;;;23.08;72.57
13314;BME280;6725;48.112;11.604;2023-04-22T07:01:41;94819.25;;;23.08;72.57
13314;BME280;6725;48.112;11.604;2023-04-22T07:04:06;94819.25;;;23.08;72.57
13314;BME280;6725;48.112;11.604;2023-04-22T07:06:32;94819.25;;;23.08;72.57
13314;BME280;6725;48.112;11.604;2023-04-22T07:08:57;94825.28;;;24.45;53.68
13314;BME280;6725;48.112;11.604;2023-04-22T07:11:22;94827.72;;;25.42;48.01
13314;BME280;6725;48.112;11.604;2023-04-22T07:13:48;94821.69;;;25.16;48.39
13314;BME280;6725;48.112;11.604;2023-04-22T07:16:13;94820.84;;;25.43;47.04
13314;BME280;6725;48.112;11.604;2023-04-22T07:18:38;94819.19;;;24.58;45.59
13314;BME280;6725;48.112;11.604;2023-04-22T07:21:04;94821.69;;;24.12;46.55
13314;BME280;6725;48.112;11.604;2023-04-22T07:23:29;94822.00;;;24.47;47.95
13314;BME280;6725;48.112;11.604;2023-04-22T07:25:55;94822.72;;;25.87;45.65
13314;BME280;6725;48.112;11.604;2023-04-22T07:28:21;94822.72;;;31.10;45.65
13314;BME280;6725;48.112;11.604;2023-04-22T07:30:46;94816.34;;;26.97;41.20
13314;BME280;6725;48.112;11.604;2023-04-22T07:33:12;94808.03;;;26.51;42.95
13314;BME280;6725;48.112;11.604;2023-04-22T07:35:38;94807.09;;;26.78;42.75
13314;BME280;6725;48.112;11.604;2023-04-22T07:38:03;94813.19;;;26.47;40.83
13314;BME280;6725;48.112;11.604;2023-04-22T07:40:29;94812.56;;;26.65;40.54
13314;BME280;6725;48.112;11.604;2023-04-22T07:42:54;94813.44;;;27.32;39.61
13314;BME280;6725;48.112;11.604;2023-04-22T07:45:19;94805.69;;;27.86;38.14
13314;BME280;6725;48.112;11.604;2023-04-22T07:47:45;94812.91;;;28.00;37.78
13314;BME280;6725;48.112;11.604;2023-04-22T07:50:10;94818.13;;;28.09;36.17
13314;BME280;6725;48.112;11.604;2023-04-22T07:52:35;94821.41;;;27.52;37.20
13314;BME280;6725;48.112;11.604;2023-04-22T07:55:01;94821.03;;;27.61;36.67
13314;BME280;6725;48.112;11.604;2023-04-22T07:57:26;94809.91;;;27.74;37.75
13314;BME280;6725;48.112;11.604;2023-04-22T07:59:52;94827.25;;;27.30;37.76
13314;BME280;6725;48.112;11.604;2023-04-22T08:02:17;94821.06;;;27.37;36.22
13314;BME280;6725;48.112;11.604;2023-04-22T08:04:42;94815.47;;;27.56;35.81
13314;BME280;6725;48.112;11.604;2023-04-22T08:07:08;94809.78;;;27.85;34.95
13314;BME280;6725;48.112;11.604;2023-04-22T08:09:34;94815.75;;;28.82;34.84
13314;BME280;6725;48.112;11.604;2023-04-22T08:11:59;94813.41;;;29.70;34.13
13314;BME280;6725;48.112;11.604;2023-04-22T08:14:25;94817.53;;;28.98;33.20
13314;BME280;6725;48.112;11.604;2023-04-22T08:16:51;94822.41;;;28.98;33.08
13314;BME280;6725;48.112;11.604;2023-04-22T08:19:17;94825.16;;;29.03;32.20
13314;BME280;6725;48.112;11.604;2023-04-22T08:21:43;94819.03;;;29.57;30.51
13314;BME280;6725;48.112;11.604;2023-04-22T08:24:08;94824.25;;;29.53;32.80
13314;BME280;6725;48.112;11.604;2023-04-22T08:26:35;94817.75;;;29.00;31.95
13314;BME280;6725;48.112;11.604;2023-04-22T08:29:00;94820.19;;;28.78;32.90
13314;BME280;6725;48.112;11.604;2023-04-22T08:31:25;94809.25;;;29.19;33.49
13314;BME280;6725;48.112;11.604;2023-04-22T08:33:51;94819.44;;;29.48;31.05
13314;BME280;6725;48.112;11.604;2023-04-22T08:36:16;94824.91;;;28.70;31.71
13314;BME280;6725;48.112;11.604;2023-04-22T08:38:42;94827.78;;;27.29;33.78
13314;BME280;6725;48.112;11.604;2023-04-22T08:41:07;94827.94;;;28.72;32.21
13314;BME280;6725;48.112;11.604;2023-04-22T08:43:34;94825.81;;;28.46;32.97
13314;BME280;6725;48.112;11.604;2023-04-22T08:45:59;94825.44;;;29.00;34.10
13314;BME280;6725;48.112;11.604;2023-04-22T08:48:26;94817.94;;;29.47;32.42
13314;BME280;6725;48.112;11.604;2023-04-22T08:50:52;94815.75;;;30.05;32.95
13314;BME280;6725;48.112;11.604;2023-04-22T08:53:19;94820.16;;;30.60;30.64
13314;BME280;6725;48.112;11.604;2023-04-22T08:55:45;94814.09;;;30.22;31.22
13314;BME280;6725;48.112;11.604;2023-04-22T08:58:11;94814.91;;;29.58;31.80
13314;BME280;6725;48.112;11.604;2023-04-22T09:00:38;94820.13;;;29.67;31.48
13314;BME280;6725;48.112;11.604;2023-04-22T09:03:06;94815.63;;;27.87;32.43
13314;BME280;6725;48.112;11.604;2023-04-22T09:05:33;94811.34;;;27.38;34.64
13314;BME280;6725;48.112;11.604;2023-04-22T09:08:01;94811.66;;;27.05;34.21
13314;BME280;6725;48.112;11.604;2023-04-22T09:10:28;94814.16;;;28.37;32.70
13314;BME280;6725;48.112;11.604;2023-04-22T09:12:54;94812.38;;;28.20;31.53
13314;BME280;6725;48.112;11.604;2023-04-22T09:15:20;94802.84;;;28.23;32.17
13314;BME280;6725;48.112;11.604;2023-04-22T09:17:46;94802.28;;;28.12;31.18
13314;BME280;6725;48.112;11.604;2023-04-22T09:20:11;94797.03;;;27.84;33.62
13314;BME280;6725;48.112;11.604;2023-04-22T09:22:47;94809.03;;;28.03;34.84
13314;BME280;6725;48.112;11.604;2023-04-22T09:25:15;94800.97;;;28.95;33.69
13314;BME280;6725;48.112;11.604;2023-04-22T09:27:41;94805.94;;;28.38;31.56
13314;BME280;6725;48.112;11.604;2023-04-22T09:30:07;94792.34;;;27.92;33.20
13314;BME280;6725;48.112;11.604;2023-04-22T09:32:33;94802.88;;;28.74;31.32
13314;BME280;6725;48.112;11.604;2023-04-22T09:34:59;94798.06;;;27.81;32.88
13314;BME280;6725;48.112;11.604;2023-04-22T09:37:26;94802.75;;;26.77;34.64
13314;BME280;6725;48.112;11.604;2023-04-22T09:39:52;94793.19;;;26.91;34.85
13314;BME280;6725;48.112;11.604;2023-04-22T09:42:19;94792.41;;;28.43;34.34
13314;BME280;6725;48.112;11.604;2023-04-22T09:44:49;94791.94;;;28.70;31.05
13314;BME280;6725;48.112;11.604;2023-04-22T09:47:18;94795.50;;;29.28;31.08
13314;BME280;6725;48.112;11.604;2023-04-22T09:49:45;94783.41;;;29.46;29.71
13314;BME280;6725;48.112;11.604;2023-04-22T09:52:22;94779.53;;;29.62;31.14
13314;BME280;6725;48.112;11.604;2023-04-22T09:54:53;94780.59;;;29.72;31.29
13314;BME280;6725;48.112;11.604;2023-04-22T09:57:22;94790.25;;;28.49;29.71
13314;BME280;6725;48.112;11.604;2023-04-22T09:59:51;94783.03;;;28.34;31.41
13314;BME280;6725;48.112;11.604;2023-04-22T10:02:17;94779.91;;;27.45;30.67
13314;BME280;6725;48.112;11.604;2023-04-22T10:04:42;94779.56;;;28.10;30.65
13314;BME280;6725;48.112;11.604;2023-04-22T10:07:08;94765.41;;;27.41;31.64
13314;BME280;6725;48.112;11.604;2023-04-22T10:09:34;94767.91;;;29.14;29.79
13314;BME280;6725;48.112;11.604;2023-04-22T10:12:00;94774.00;;;29.70;30.20
13314;BME280;6725;48.112;11.604;2023-04-22T10:14:26;94761.81;;;29.88;29.36
13314;BME280;6725;48.112;11.604;2023-04-22T10:16:56;94768.56;;;29.07;30.09
13314;BME280;6725;48.112;11.604;2023-04-22T10:19:24;94764.78;;;27.30;34.11
13314;BME280;6725;48.112;11.604;2023-04-22T10:21:53;94764.75;;;26.52;40.03
13314;BME280;6725;48.112;11.604;2023-04-22T10:24:20;94760.63;;;27.12;38.41
13314;BME280;6725;48.112;11.604;2023-04-22T10:26:50;94757.34;;;27.08;36.96
13314;BME280;6725;48.112;11.604;2023-04-22T10:29:18;94750.63;;;27.78;36.58
13314;BME280;6725;48.112;11.604;2023-04-22T10:31:52;94745.09;;;27.54;35.93
13314;BME280;6725;48.112;11.604;2023-04-22T10:34:18;94752.38;;;24.93;40.14
13314;BME280;6725;48.112;11.604;2023-04-22T10:37:04;94743.38;;;27.27;37.27
13314;BME280;6725;48.112;11.604;2023-04-22T10:39:30;94743.69;;;27.84;36.16
13314;BME280;6725;48.112;11.604;2023-04-22T10:42:03;94759.50;;;26.08;37.44
13314;BME280;6725;48.112;11.604;2023-04-22T10:44:53;94752.97;;;25.43;40.13
13314;BME280;6725;48.112;11.604;2023-04-22T10:47:30;94735.97;;;26.22;39.60
13314;BME280;6725;48.112;11.604;2023-04-22T10:50:22;94732.56;;;26.64;39.32
13314;BME280;6725;48.112;11.604;2023-04-22T10:52:55;94736.66;;;27.35;36.70
13314;BME280;6725;48.112;11.604;2023-04-22T10:55:21;94732.75;;;26.72;39.47
13314;BME280;6725;48.112;11.604;2023-04-22T10:57:48;94727.66;;;26.94;38.41
13314;BME280;6725;48.112;11.604;2023-04-22T11:00:31;94726.84;;;26.16;38.79
13314;BME280;6725;48.112;11.604;2023-04-22T11:03:13;94721.44;;;26.53;39.15
13314;BME280;6725;48.112;11.604;2023-04-22T11:05:39;94719.53;;;26.37;39.61
13314;BME280;6725;48.112;11.604;2023-04-22T11:10:36;94726.19;;;27.54;35.24
13314;BME280;6725;48.112;11.604;2023-04-22T11:13:05;94727.50;;;27.90;34.11
13314;BME280;6725;48.112;11.604;2023-04-22T11:15:33;94731.88;;;27.49;34.35
13314;BME280;6725;48.112;11.604;2023-04-22T11:17:59;94726.50;;;26.84;33.71
13314;BME280;6725;48.112;11.604;2023-04-22T11:20:24;94718.84;;;25.56;35.24
13314;BME280;6725;48.112;11.604;2023-04-22T11:22:55;94722.22;;;25.43;36.80
13314;BME280;6725;48.112;11.604;2023-04-22T11:25:22;94718.84;;;25.96;37.02
13314;BME280;6725;48.112;11.604;2023-04-22T11:27:48;94723.97;;;26.27;35.58
13314;BME280;6725;48.112;11.604;2023-04-22T11:30:18;94721.94;;;25.47;35.03
13314;BME280;6725;48.112;11.604;2023-04-22T11:32:51;94720.50;;;25.75;35.49
13314;BME280;6725;48.112;11.604;2023-04-22T11:35:18;94719.53;;;25.67;36.40
13314;BME280;6725;48.112;11.604;2023-04-22T11:37:53;94726.38;;;26.12;35.63
13314;BME280;6725;48.112;11.604;2023-04-22T11:40:22;94724.47;;;24.60;37.58
13314;BME280;6725;48.112;11.604;2023-04-22T11:42:49;94722.22;;;24.20;38.00
13314;BME280;6725;48.112;11.604;2023-04-22T11:45:15;94709.97;;;23.57;39.53
13314;BME280;6725;48.112;11.604;2023-04-22T11:47:41;94718.13;;;23.82;41.00
13314;BME280;6725;48.112;11.604;2023-04-22T11:50:09;94717.34;;;23.60;41.69
13314;BME280;6725;48.112;11.604;2023-04-22T11:52:53;94720.06;;;23.32;40.94
13314;BME280;6725;48.112;11.604;2023-04-22T11:55:28;94716.53;;;22.79;41.26
13314;BME280;6725;48.112;11.604;2023-04-22T11:57:59;94711.94;;;22.76;41.86
13314;BME280;6725;48.112;11.604;2023-04-22T12:00:36;94712.19;;;22.78;42.85
13314;BME280;6725;48.112;11.604;2023-04-22T12:03:21;94713.72;;;22.73;42.20
13314;BME280;6725;48.112;11.604;2023-04-22T12:05:55;94708.59;;;22.61;42.18
13314;BME280;6725;48.112;11.604;2023-04-22T12:08:23;94706.97;;;22.91;41.93
13314;BME280;6725;48.112;11.604;2023-04-22T12:10:52;94711.00;;;22.90;42.80
13314;BME280;6725;48.112;11.604;2023-04-22T12:13:23;94701.94;;;23.06;42.58
13314;BME280;6725;48.112;11.604;2023-04-22T12:15:53;94699.28;;;23.33;42.15
13314;BME280;6725;48.112;11.604;2023-04-22T12:23:29;94696.06;;;23.79;41.58
13314;BME280;6725;48.112;11.604;2023-04-22T12:25:56;94699.63;;;23.74;41.42
13314;BME280;6725;48.112;11.604;2023-04-22T12:28:21;94697.56;;;23.69;39.63
13314;BME280;6725;48.112;11.604;2023-04-22T12:30:46;94694.75;;;23.58;40.67
13314;BME280;6725;48.112;11.604;2023-04-22T12:33:12;94692.50;;;23.73;40.85
13314;BME280;6725;48.112;11.604;2023-04-22T12:35:37;94687.22;;;23.97;40.68
13314;BME280;6725;48.112;11.604;2023-04-22T12:38:02;94686.44;;;24.24;40.09
13314;BME280;6725;48.112;11.604;2023-04-22T12:40:28;94693.31;;;23.95;40.22
13314;BME280;6725;48.112;11.604;2023-04-22T12:42:53;94693.72;;;23.44;40.97
13314;BME280;6725;48.112;11.604;2023-04-22T12:45:19;94686.91;;;23.56;41.32
13314;BME280;6725;48.112;11.604;2023-04-22T12:47:47;94683.09;;;23.59;41.18
13314;BME280;6725;48.112;11.604;2023-04-22T12:50:13;94686.41;;;23.69;41.58
13314;BME280;6725;48.112;11.604;2023-04-22T12:52:39;94692.22;;;23.49;41.50
13314;BME280;6725;48.112;11.604;2023-04-22T12:55:04;94682.84;;;23.52;42.55
13314;BME280;6725;48.112;11.604;2023-04-22T12:57:30;94685.88;;;23.54;43.05
13314;BME280;6725;48.112;11.604;2023-04-22T12:59:56;94674.16;;;23.22;43.11
13314;BME280;6725;48.112;11.604;2023-04-22T13:02:22;94678.16;;;23.05;43.45